Time;durP1;ratioP1;P1;durP2;ratioP2;P2;SDS_P1;SDS_P2;PMS_P1;PMS_P2;Temp;Humidity;BMP_temperature;BMP_pressure;BME280_temperature;BME280_humidity;BME280_pressure;Samples;Min_cycle;Max_cycle;Signal;HPM_P1;HPM_P2
2021/10/20 00:00:19;;;;;;;1.38;0.20;;;24.60;91.50;;;;;;5077686;28;20036;-68
2021/10/20 00:02:49;;;;;;;0.55;0.20;;;25.00;91.00;;;;;;5083118;28;20043;-69
2021/10/20 00:05:18;;;;;;;6.03;0.25;;;25.00;90.70;;;;;;5075524;28;20047;-68
2021/10/20 00:07:46;;;;;;;0.32;0.20;;;25.20;91.40;;;;;;5077437;28;20031;-71
2021/10/20 00:10:15;;;;;;;0.20;0.10;;;25.30;90.40;;;;;;5078580;28;20069;-70
2021/10/20 00:12:44;;;;;;;1.08;0.50;;;25.50;89.70;;;;;;5078774;28;20025;-72
2021/10/20 00:15:14;;;;;;;0.47;0.05;;;25.70;90.60;;;;;;5076924;28;20032;-71
2021/10/20 00:17:41;;;;;;;3.00;0.20;;;26.20;86.90;;;;;;5076796;28;20166;-72
2021/10/20 00:20:14;;;;;;;0.80;0.20;;;26.00;88.00;;;;;;5074538;28;20060;-69
2021/10/20 00:22:42;;;;;;;3.22;0.20;;;25.50;88.10;;;;;;5074650;28;20144;-71
2021/10/20 00:25:11;;;;;;;0.47;0.10;;;24.90;87.10;;;;;;5074391;28;20478;-70
2021/10/20 00:27:39;;;;;;;0.25;0.10;;;25.00;89.30;;;;;;5073822;28;20044;-70
2021/10/20 00:30:07;;;;;;;4.32;0.30;;;24.60;87.60;;;;;;5072272;28;20975;-72
2021/10/20 00:32:38;;;;;;;0.70;0.22;;;25.10;87.60;;;;;;5056518;28;20148;-70
2021/10/20 00:35:06;;;;;;;0.80;0.25;;;25.70;86.70;;;;;;5073519;28;20133;-70
2021/10/20 00:37:34;;;;;;;0.32;0.10;;;25.30;83.40;;;;;;5081387;28;20027;-70
2021/10/20 00:40:01;;;;;;;0.73;0.20;;;25.20;84.50;;;;;;5080593;28;20035;-70
2021/10/20 00:42:29;;;;;;;1.30;0.20;;;24.60;83.50;;;;;;5076108;28;20897;-71
2021/10/20 00:44:59;;;;;;;0.35;0.10;;;24.50;83.80;;;;;;5072170;28;20615;-70
2021/10/20 00:47:28;;;;;;;0.93;0.20;;;24.70;82.60;;;;;;5076024;28;20032;-71
2021/10/20 00:49:56;;;;;;;1.30;0.20;;;24.60;84.70;;;;;;5059849;28;20070;-70
2021/10/20 00:52:26;;;;;;;3.53;0.28;;;24.40;87.80;;;;;;5076643;28;20128;-69
2021/10/20 00:54:56;;;;;;;2.50;0.20;;;24.60;89.70;;;;;;5077758;28;20024;-70
2021/10/20 00:57:26;;;;;;;1.73;0.68;;;24.30;88.70;;;;;;5068327;28;20062;-71
2021/10/20 00:59:55;;;;;;;0.63;0.38;;;24.80;89.80;;;;;;5077950;28;20031;-70
2021/10/20 01:02:22;;;;;;;0.63;0.30;;;25.60;89.20;;;;;;5061553;28;20029;-69
2021/10/20 01:04:50;;;;;;;1.55;0.20;;;25.30;85.80;;;;;;5080341;28;20028;-69
2021/10/20 01:07:19;;;;;;;1.02;0.30;;;24.50;91.30;;;;;;5074014;28;20470;-71
2021/10/20 01:09:47;;;;;;;0.45;0.22;;;23.50;96.40;;;;;;5078159;28;20036;-71
2021/10/20 01:12:16;;;;;;;0.35;0.10;;;22.60;99.90;;;;;;5074357;28;20059;-71
2021/10/20 01:14:45;;;;;;;2.08;0.22;;;22.10;99.80;;;;;;5082089;28;20016;-71
2021/10/20 01:17:12;;;;;;;1.23;0.15;;;21.70;99.90;;;;;;5077344;28;20028;-72
2021/10/20 01:19:43;;;;;;;1.40;0.30;;;21.50;99.90;;;;;;5075934;28;20024;-70
2021/10/20 01:22:11;;;;;;;0.25;0.15;;;21.40;99.90;;;;;;5077757;28;20552;-70
2021/10/20 01:24:39;;;;;;;0.77;0.35;;;21.10;99.90;;;;;;5079647;28;20036;-70
2021/10/20 01:27:07;;;;;;;1.58;0.28;;;20.90;99.90;;;;;;5079427;28;20028;-69
2021/10/20 01:29:35;;;;;;;0.75;0.40;;;20.80;99.90;;;;;;5079441;28;20116;-72
2021/10/20 01:32:07;;;;;;;1.80;0.30;;;20.70;99.90;;;;;;5083328;28;20449;-71
2021/10/20 01:34:35;;;;;;;2.38;0.50;;;20.60;99.90;;;;;;5076238;28;20021;-71
2021/10/20 01:37:05;;;;;;;3.50;0.57;;;20.60;99.90;;;;;;5083561;28;20487;-71
2021/10/20 01:39:35;;;;;;;1.83;0.20;;;20.60;99.90;;;;;;5079055;28;20028;-72
2021/10/20 01:42:03;;;;;;;1.67;0.20;;;20.80;99.90;;;;;;5079353;28;20545;-70
2021/10/20 01:44:31;;;;;;;2.42;0.20;;;20.90;99.90;;;;;;5083596;28;20028;-70
2021/10/20 01:47:00;;;;;;;0.55;0.25;;;21.10;99.90;;;;;;5079653;28;20118;-71
2021/10/20 01:49:27;;;;;;;1.02;0.20;;;21.10;99.90;;;;;;5079476;28;20052;-71
2021/10/20 01:51:55;;;;;;;0.88;0.38;;;21.20;99.90;;;;;;5086310;28;20028;-70
2021/10/20 01:54:22;;;;;;;0.35;0.10;;;21.40;99.90;;;;;;5083924;28;20426;-70
2021/10/20 01:56:50;;;;;;;0.20;0.20;;;22.20;99.90;;;;;;5081044;28;20028;-70
2021/10/20 01:59:18;;;;;;;0.25;0.13;;;23.20;99.90;;;;;;5077639;28;20021;-71
2021/10/20 02:01:45;;;;;;;1.95;0.20;;;24.00;98.30;;;;;;5081314;28;20107;-70
2021/10/20 02:04:14;;;;;;;2.72;0.20;;;24.50;97.00;;;;;;5088234;28;20382;-69
2021/10/20 02:06:43;;;;;;;1.05;0.15;;;24.50;97.00;;;;;;5082979;28;20052;-69
2021/10/20 02:09:14;;;;;;;0.63;0.20;;;24.30;93.80;;;;;;5079972;28;20086;-71
2021/10/20 02:11:44;;;;;;;2.35;0.22;;;24.00;93.70;;;;;;5084062;28;20482;-68
2021/10/20 02:14:13;;;;;;;1.33;0.30;;;23.90;94.40;;;;;;5082775;28;20032;-70
2021/10/20 02:16:41;;;;;;;0.95;0.10;;;24.30;92.90;;;;;;5080118;28;20028;-69
2021/10/20 02:19:09;;;;;;;0.10;0.10;;;24.60;94.10;;;;;;5073942;28;20074;-70
2021/10/20 02:21:37;;;;;;;0.20;0.10;;;24.20;93.90;;;;;;5080666;28;20025;-70
2021/10/20 02:24:05;;;;;;;0.52;0.10;;;23.90;91.10;;;;;;5089827;28;20028;-70
2021/10/20 02:26:32;;;;;;;1.30;0.10;;;24.00;92.30;;;;;;5073321;28;20601;-70
2021/10/20 02:28:59;;;;;;;1.65;0.47;;;24.20;93.30;;;;;;5086458;28;20044;-70
2021/10/20 02:31:27;;;;;;;1.45;0.22;;;24.50;91.30;;;;;;5083748;28;20024;-69
2021/10/20 02:33:54;;;;;;;3.20;0.57;;;24.10;91.00;;;;;;5081391;28;20111;-69
2021/10/20 02:36:22;;;;;;;1.25;0.25;;;23.70;91.50;;;;;;5078864;28;20032;-69
2021/10/20 02:38:49;;;;;;;0.70;0.20;;;23.20;90.50;;;;;;5083193;28;20032;-70
2021/10/20 02:41:17;;;;;;;3.13;0.43;;;23.00;91.70;;;;;;5082320;28;20027;-71
2021/10/20 02:43:44;;;;;;;0.45;0.20;;;23.20;92.50;;;;;;5082730;28;20520;-69
2021/10/20 02:46:12;;;;;;;2.15;0.20;;;24.10;91.30;;;;;;5078113;28;20497;-70
2021/10/20 02:48:39;;;;;;;3.40;0.55;;;24.80;88.50;;;;;;5080991;28;20046;-70
2021/10/20 02:51:07;;;;;;;1.75;0.25;;;25.60;87.20;;;;;;5085119;28;20520;-72
2021/10/20 02:53:35;;;;;;;0.60;0.30;;;26.30;80.90;;;;;;5080120;28;20031;-68
2021/10/20 02:56:02;;;;;;;0.80;0.08;;;26.80;84.90;;;;;;5083399;28;20032;-69
2021/10/20 02:58:29;;;;;;;0.70;0.28;;;26.80;79.50;;;;;;5080016;28;20111;-69
2021/10/20 03:00:57;;;;;;;1.55;0.40;;;25.90;78.90;;;;;;5066376;28;20425;-70
2021/10/20 03:03:24;;;;;;;0.40;0.40;;;25.30;79.90;;;;;;5084669;28;20640;-72
2021/10/20 03:05:51;;;;;;;1.38;0.20;;;25.40;81.50;;;;;;5083010;28;20478;-71
2021/10/20 03:08:19;;;;;;;3.13;0.30;;;25.50;79.10;;;;;;5082820;28;20050;-70
2021/10/20 03:10:47;;;;;;;0.57;0.20;;;25.60;79.80;;;;;;5081596;28;20486;-69
2021/10/20 03:13:14;;;;;;;1.63;0.40;;;26.10;78.70;;;;;;5079995;28;20020;-69
2021/10/20 03:15:42;;;;;;;2.17;0.30;;;26.60;77.20;;;;;;5080816;28;20493;-70
2021/10/20 03:18:09;;;;;;;2.20;0.32;;;26.80;72.30;;;;;;5079902;28;20024;-71
2021/10/20 03:20:36;;;;;;;1.58;0.50;;;27.00;72.50;;;;;;5080424;28;20102;-70
2021/10/20 03:23:04;;;;;;;0.88;0.35;;;26.40;73.70;;;;;;5076943;28;20031;-72
2021/10/20 03:25:31;;;;;;;2.05;0.50;;;25.50;73.80;;;;;;5076742;28;20066;-70
2021/10/20 03:27:58;;;;;;;1.77;0.32;;;24.60;75.20;;;;;;5075804;28;20039;-70
2021/10/20 03:30:26;;;;;;;0.73;0.30;;;24.50;76.60;;;;;;5075845;28;20419;-73
2021/10/20 03:32:53;;;;;;;1.38;0.25;;;25.10;77.20;;;;;;5075851;28;20028;-71
2021/10/20 03:35:20;;;;;;;2.33;0.50;;;25.60;77.40;;;;;;5090510;28;20497;-72
2021/10/20 03:37:51;;;;;;;1.13;0.30;;;25.10;75.70;;;;;;5079381;28;22749;-71
2021/10/20 03:40:19;;;;;;;1.33;0.50;;;24.50;76.50;;;;;;5078246;28;20107;-70
2021/10/20 03:42:46;;;;;;;2.03;0.20;;;24.70;77.80;;;;;;5082159;28;20028;-70
2021/10/20 03:45:15;;;;;;;0.20;0.10;;;25.20;82.00;;;;;;5078361;28;20058;-71
2021/10/20 03:47:44;;;;;;;1.52;0.20;;;25.90;77.90;;;;;;5082232;28;20028;-71
2021/10/20 03:50:12;;;;;;;1.55;0.85;;;26.40;75.20;;;;;;5078986;28;20098;-71
2021/10/20 03:52:39;;;;;;;0.28;0.20;;;26.60;72.10;;;;;;5079037;28;20054;-71
2021/10/20 03:55:07;;;;;;;0.73;0.20;;;26.50;70.00;;;;;;5083516;28;20060;-70
2021/10/20 03:57:36;;;;;;;0.13;0.10;;;26.70;70.50;;;;;;5078321;28;20611;-70
2021/10/20 04:00:07;;;;;;;0.40;0.20;;;26.90;71.60;;;;;;5083465;28;20036;-70
2021/10/20 04:02:35;;;;;;;2.80;0.40;;;26.90;66.70;;;;;;5069307;28;20030;-69
2021/10/20 04:05:02;;;;;;;0.88;0.13;;;26.80;66.50;;;;;;5081070;28;20457;-70
2021/10/20 04:07:30;;;;;;;1.98;0.15;;;27.00;69.20;;;;;;5081126;28;20032;-71
2021/10/20 04:09:57;;;;;;;0.93;0.20;;;27.30;65.70;;;;;;5082921;28;20028;-71
2021/10/20 04:12:25;;;;;;;1.50;0.40;;;27.00;65.70;;;;;;5080996;28;20032;-69
2021/10/20 04:14:52;;;;;;;0.82;0.22;;;26.50;66.20;;;;;;5075509;28;20109;-68
2021/10/20 04:17:19;;;;;;;0.40;0.13;;;26.40;66.90;;;;;;5079380;28;20482;-69
2021/10/20 04:19:47;;;;;;;0.30;0.20;;;26.50;67.70;;;;;;5079070;28;20020;-72
2021/10/20 04:22:14;;;;;;;1.45;0.17;;;26.70;68.00;;;;;;5081607;28;20406;-69
2021/10/20 04:24:42;;;;;;;1.17;0.10;;;27.10;67.30;;;;;;5076299;28;20028;-71
2021/10/20 04:27:09;;;;;;;1.17;0.28;;;27.20;67.60;;;;;;5060218;28;20479;-69
2021/10/20 04:29:37;;;;;;;0.50;0.13;;;26.50;67.30;;;;;;5054206;28;20507;-69
2021/10/20 04:32:04;;;;;;;1.52;0.10;;;25.60;67.20;;;;;;5078195;28;20488;-69
2021/10/20 04:34:32;;;;;;;1.40;0.22;;;25.00;68.40;;;;;;5081438;28;20063;-69
2021/10/20 04:36:59;;;;;;;3.42;0.20;;;25.00;70.00;;;;;;5080715;28;20528;-69
2021/10/20 04:39:27;;;;;;;1.75;0.90;;;25.30;71.40;;;;;;5078754;28;20017;-70
2021/10/20 04:41:54;;;;;;;2.05;0.40;;;25.80;71.50;;;;;;5076288;28;20025;-71
2021/10/20 04:44:21;;;;;;;2.40;0.30;;;26.20;71.10;;;;;;5078844;28;20025;-70
2021/10/20 04:46:49;;;;;;;0.45;0.20;;;26.40;71.40;;;;;;5089255;28;20469;-69
2021/10/20 04:49:16;;;;;;;1.42;0.20;;;26.80;71.30;;;;;;5081568;28;20390;-69
2021/10/20 04:51:43;;;;;;;1.00;0.20;;;27.00;69.60;;;;;;5086128;28;20049;-69
2021/10/20 04:54:11;;;;;;;1.80;0.20;;;27.10;68.20;;;;;;5077303;28;20051;-69
2021/10/20 04:56:38;;;;;;;1.80;0.20;;;26.70;68.00;;;;;;5079725;28;20032;-70
2021/10/20 04:59:06;;;;;;;2.08;0.10;;;26.60;68.30;;;;;;5083576;28;20283;-71
2021/10/20 05:01:33;;;;;;;0.38;0.17;;;26.60;66.90;;;;;;5089799;28;20032;-69
2021/10/20 05:04:00;;;;;;;1.50;0.30;;;26.50;67.40;;;;;;5077187;28;20028;-71
2021/10/20 05:06:28;;;;;;;3.88;0.75;;;26.60;70.00;;;;;;5078788;28;20031;-71
2021/10/20 05:08:55;;;;;;;2.83;0.10;;;26.50;70.70;;;;;;5085324;28;20414;-71
2021/10/20 05:11:23;;;;;;;2.45;0.22;;;25.90;68.90;;;;;;5085281;28;20715;-70
2021/10/20 05:13:50;;;;;;;1.10;0.20;;;25.50;69.40;;;;;;5083775;28;20090;-70
2021/10/20 05:16:17;;;;;;;0.15;0.10;;;25.40;67.80;;;;;;5087658;28;20445;-71
2021/10/20 05:18:45;;;;;;;0.80;0.17;;;25.40;67.30;;;;;;5082114;28;20031;-69
2021/10/20 05:21:12;;;;;;;1.67;0.13;;;25.50;68.60;;;;;;5084713;28;20082;-69
2021/10/20 05:23:39;;;;;;;2.63;0.40;;;25.20;65.00;;;;;;5081273;28;20032;-70
2021/10/20 05:26:07;;;;;;;0.63;0.20;;;24.90;63.70;;;;;;5082445;28;20089;-69
2021/10/20 05:28:34;;;;;;;0.47;0.10;;;24.60;68.10;;;;;;5083289;28;20040;-70
2021/10/20 05:31:01;;;;;;;0.30;0.30;;;24.80;70.50;;;;;;5080879;28;20032;-72
2021/10/20 05:33:29;;;;;;;1.38;0.17;;;24.90;69.30;;;;;;5079365;28;20107;-72
2021/10/20 05:35:56;;;;;;;0.20;0.10;;;25.10;69.30;;;;;;5083212;28;20024;-70
2021/10/20 05:38:23;;;;;;;1.27;0.73;;;25.30;70.50;;;;;;5079160;28;20108;-69
2021/10/20 05:40:51;;;;;;;0.45;0.10;;;25.20;70.30;;;;;;5082919;28;20038;-71
2021/10/20 05:43:19;;;;;;;0.63;0.20;;;25.00;70.40;;;;;;5084986;28;20502;-70
2021/10/20 05:45:49;;;;;;;1.02;0.13;;;24.90;70.00;;;;;;5084780;28;20482;-70
2021/10/20 05:48:22;;;;;;;2.05;0.30;;;25.00;70.80;;;;;;5078743;28;20032;-72
2021/10/20 05:50:53;;;;;;;1.67;0.15;;;25.00;70.50;;;;;;5081038;28;20483;-69
2021/10/20 05:53:21;;;;;;;0.77;0.10;;;25.00;70.50;;;;;;5078579;28;20020;-74
2021/10/20 05:55:48;;;;;;;1.02;0.28;;;25.00;71.30;;;;;;5084005;28;20036;-70
2021/10/20 05:58:16;;;;;;;0.50;0.20;;;24.90;72.00;;;;;;5080764;28;20025;-71
2021/10/20 06:00:44;;;;;;;1.30;0.17;;;24.80;72.40;;;;;;5081482;28;20032;-70
2021/10/20 06:03:11;;;;;;;0.55;0.10;;;24.60;72.60;;;;;;5080792;28;20104;-70
2021/10/20 06:05:39;;;;;;;0.68;0.17;;;24.50;74.50;;;;;;5090395;28;20479;-70
2021/10/20 06:08:06;;;;;;;1.88;0.35;;;24.20;74.80;;;;;;5089709;28;20054;-69
2021/10/20 06:10:34;;;;;;;2.72;0.30;;;23.90;76.10;;;;;;5075269;28;20093;-71
2021/10/20 06:13:02;;;;;;;2.03;0.70;;;23.50;76.30;;;;;;5088581;28;20031;-69
2021/10/20 06:15:29;;;;;;;0.40;0.20;;;23.40;76.90;;;;;;5085718;28;20024;-69
2021/10/20 06:17:57;;;;;;;2.50;0.30;;;23.30;77.50;;;;;;5083967;28;20055;-69
2021/10/20 06:20:24;;;;;;;2.20;0.32;;;23.40;77.50;;;;;;5083885;28;20028;-70
2021/10/20 06:22:51;;;;;;;1.00;0.30;;;23.50;77.80;;;;;;5081800;28;20722;-69
2021/10/20 06:25:19;;;;;;;0.82;0.20;;;23.70;77.80;;;;;;5081815;28;20032;-69
2021/10/20 06:27:46;;;;;;;2.70;0.32;;;23.80;77.30;;;;;;5078242;28;20028;-70
2021/10/20 06:30:13;;;;;;;0.20;0.10;;;23.90;76.50;;;;;;5080569;28;20044;-70
2021/10/20 06:32:43;;;;;;;0.80;0.10;;;23.90;75.00;;;;;;5086117;28;20024;-70
2021/10/20 06:35:11;;;;;;;2.30;0.15;;;23.80;76.80;;;;;;5079716;28;20024;-71
2021/10/20 06:37:48;;;;;;;0.80;0.10;;;23.60;77.30;;;;;;5091030;28;20035;-70
2021/10/20 06:40:16;;;;;;;0.55;0.30;;;23.50;77.90;;;;;;5073185;28;20029;-70
2021/10/20 06:42:43;;;;;;;0.50;0.20;;;23.40;78.50;;;;;;5075395;28;20024;-69
2021/10/20 06:45:11;;;;;;;1.23;0.17;;;23.10;78.80;;;;;;5088523;28;20043;-70
2021/10/20 06:47:38;;;;;;;1.83;0.30;;;22.90;79.20;;;;;;5088168;28;20028;-69
2021/10/20 06:50:06;;;;;;;1.08;0.40;;;22.80;80.60;;;;;;5080755;28;20378;-70
2021/10/20 06:52:34;;;;;;;2.50;0.30;;;22.70;82.00;;;;;;5089351;28;20383;-70
2021/10/20 06:55:02;;;;;;;0.82;0.20;;;22.60;81.40;;;;;;5081798;28;20117;-70
2021/10/20 06:57:29;;;;;;;1.00;0.63;;;22.50;81.20;;;;;;5084632;28;20020;-70
2021/10/20 06:59:57;;;;;;;0.38;0.20;;;22.30;81.40;;;;;;5072909;28;20497;-70
2021/10/20 07:02:25;;;;;;;1.02;0.20;;;22.30;81.50;;;;;;5081855;28;20081;-71
2021/10/20 07:04:52;;;;;;;2.35;0.20;;;22.30;82.00;;;;;;5089858;28;20036;-70
2021/10/20 07:07:19;;;;;;;2.50;0.40;;;22.30;83.10;;;;;;5092543;28;20012;-70
2021/10/20 07:09:47;;;;;;;0.82;0.40;;;22.20;83.00;;;;;;5086638;28;20028;-69
2021/10/20 07:12:14;;;;;;;1.27;0.50;;;22.00;83.80;;;;;;5089166;28;20029;-70
2021/10/20 07:14:42;;;;;;;2.97;0.57;;;22.00;85.00;;;;;;5089232;28;20032;-71
2021/10/20 07:17:09;;;;;;;3.80;0.52;;;21.90;85.80;;;;;;5088263;28;20030;-71
2021/10/20 07:19:38;;;;;;;2.10;1.27;;;21.70;86.70;;;;;;5082278;28;20027;-70
2021/10/20 07:22:09;;;;;;;3.55;0.40;;;21.60;87.70;;;;;;5073112;28;20029;-69
2021/10/20 07:24:36;;;;;;;2.33;0.52;;;21.60;88.50;;;;;;5083712;28;20035;-69
2021/10/20 07:27:04;;;;;;;1.77;0.50;;;21.60;89.60;;;;;;5088449;28;20033;-70
2021/10/20 07:29:31;;;;;;;6.22;0.50;;;21.60;88.70;;;;;;5084156;28;20066;-70
2021/10/20 07:31:59;;;;;;;1.80;0.52;;;21.50;89.10;;;;;;5088554;28;20044;-71
2021/10/20 07:34:27;;;;;;;4.45;0.40;;;21.40;89.90;;;;;;5090587;28;20028;-71
2021/10/20 07:36:55;;;;;;;3.63;0.50;;;21.30;90.20;;;;;;5090459;28;20048;-69
2021/10/20 07:39:23;;;;;;;1.30;0.70;;;21.30;90.60;;;;;;5086104;28;20753;-71
2021/10/20 07:41:51;;;;;;;3.78;1.23;;;21.20;91.00;;;;;;5089238;28;20027;-72
2021/10/20 07:44:18;;;;;;;1.00;0.45;;;21.10;91.70;;;;;;5088320;28;20463;-70
2021/10/20 07:46:45;;;;;;;1.10;0.40;;;21.00;91.80;;;;;;5081225;28;20077;-70
2021/10/20 07:49:13;;;;;;;2.70;0.80;;;20.80;92.30;;;;;;5065555;28;20397;-71
2021/10/20 07:51:41;;;;;;;1.38;0.90;;;20.70;92.70;;;;;;5090863;28;20103;-69
2021/10/20 07:54:08;;;;;;;2.63;0.98;;;20.60;92.50;;;;;;5088731;28;20051;-70
2021/10/20 07:56:42;;;;;;;1.75;0.50;;;20.50;92.60;;;;;;5086867;28;20027;-70
2021/10/20 07:59:09;;;;;;;1.70;0.50;;;20.40;92.70;;;;;;5075880;28;20029;-72
2021/10/20 08:01:37;;;;;;;4.88;0.60;;;20.30;93.10;;;;;;5091247;28;20032;-71
2021/10/20 08:04:04;;;;;;;2.40;0.60;;;20.30;93.50;;;;;;5088891;28;20578;-70
2021/10/20 08:06:32;;;;;;;1.83;0.35;;;20.20;94.20;;;;;;5073405;28;20417;-70
2021/10/20 08:08:59;;;;;;;2.28;0.60;;;20.10;94.50;;;;;;5087336;28;20032;-70
2021/10/20 08:11:27;;;;;;;2.08;0.40;;;20.00;95.00;;;;;;5089211;28;20439;-70
2021/10/20 08:13:54;;;;;;;2.28;0.55;;;20.00;95.90;;;;;;5055274;28;20482;-71
2021/10/20 08:16:21;;;;;;;3.00;0.60;;;20.00;96.40;;;;;;5089710;28;20032;-70
2021/10/20 08:18:49;;;;;;;4.55;0.32;;;19.90;97.00;;;;;;5086775;28;20035;-72
2021/10/20 08:21:16;;;;;;;3.88;0.65;;;19.80;97.40;;;;;;5074636;28;20088;-70
2021/10/20 08:23:44;;;;;;;1.52;0.47;;;19.70;97.80;;;;;;5078162;28;20485;-70
2021/10/20 08:26:11;;;;;;;6.82;0.82;;;19.60;98.00;;;;;;5091168;28;20107;-71
2021/10/20 08:28:38;;;;;;;2.90;0.47;;;19.60;98.40;;;;;;5076561;28;20107;-70
2021/10/20 08:31:06;;;;;;;1.13;0.43;;;19.50;98.80;;;;;;5083715;28;20071;-71
2021/10/20 08:33:33;;;;;;;1.48;0.50;;;19.50;99.10;;;;;;5081040;28;20111;-71
2021/10/20 08:36:01;;;;;;;3.90;0.63;;;19.40;99.80;;;;;;5084930;28;20055;-70
2021/10/20 08:38:28;;;;;;;3.15;0.82;;;19.30;99.90;;;;;;5065593;28;20024;-72
2021/10/20 08:40:56;;;;;;;4.43;0.60;;;19.30;99.90;;;;;;5089472;28;20085;-72
2021/10/20 08:43:24;;;;;;;2.63;0.57;;;19.30;99.90;;;;;;5077294;28;20020;-70
2021/10/20 08:45:51;;;;;;;4.15;0.50;;;19.30;99.90;;;;;;5089006;28;20032;-69
2021/10/20 08:48:24;;;;;;;2.97;0.77;;;19.30;99.90;;;;;;5078864;28;20090;-70
2021/10/20 08:50:58;;;;;;;2.53;0.50;;;19.20;99.90;;;;;;5086225;28;20075;-71
2021/10/20 08:53:27;;;;;;;1.92;0.85;;;19.20;99.90;;;;;;5081345;28;20035;-71
2021/10/20 08:55:55;;;;;;;2.92;0.60;;;19.10;99.90;;;;;;5065543;28;20067;-70
2021/10/20 08:58:24;;;;;;;2.05;0.95;;;19.00;99.90;;;;;;5053624;28;20111;-71
2021/10/20 09:00:51;;;;;;;1.83;0.85;;;18.90;99.90;;;;;;5086397;28;20588;-71
2021/10/20 09:03:18;;;;;;;3.08;0.68;;;18.80;99.90;;;;;;5087706;28;20535;-71
2021/10/20 09:05:46;;;;;;;4.38;0.80;;;18.80;99.90;;;;;;5090216;28;20028;-71
2021/10/20 09:08:14;;;;;;;2.50;1.13;;;18.70;99.90;;;;;;5081658;28;20025;-71
2021/10/20 09:10:44;;;;;;;3.78;0.63;;;18.60;99.90;;;;;;5083878;28;20032;-72
2021/10/20 09:13:13;;;;;;;0.80;0.40;;;18.60;99.90;;;;;;5054831;28;20028;-71
2021/10/20 09:15:41;;;;;;;1.83;0.38;;;18.60;99.90;;;;;;5088749;28;20024;-71
2021/10/20 09:18:11;;;;;;;3.40;0.50;;;18.60;99.90;;;;;;5085145;28;20024;-71
2021/10/20 09:20:46;;;;;;;2.03;0.40;;;18.50;99.90;;;;;;5065260;28;20032;-71
2021/10/20 09:23:22;;;;;;;1.50;0.63;;;18.40;99.90;;;;;;5083252;28;20024;-71
2021/10/20 09:25:58;;;;;;;3.25;0.70;;;18.40;99.90;;;;;;5088702;28;20116;-72
2021/10/20 09:28:34;;;;;;;5.13;1.15;;;18.30;99.90;;;;;;5082465;28;20035;-72
2021/10/20 09:31:03;;;;;;;3.92;0.60;;;18.30;99.90;;;;;;5091054;28;20111;-72
2021/10/20 09:33:35;;;;;;;4.35;0.60;;;18.20;99.90;;;;;;5079942;28;20025;-71
2021/10/20 09:36:06;;;;;;;2.90;1.23;;;18.20;99.90;;;;;;5073089;28;20032;-71
2021/10/20 09:38:40;;;;;;;3.90;0.50;;;18.20;99.90;;;;;;5087300;28;20438;-71
2021/10/20 09:41:09;;;;;;;4.15;0.50;;;18.10;99.90;;;;;;5077573;28;20055;-70
2021/10/20 09:43:57;;;;;;;1.83;0.50;;;18.10;99.90;;;;;;5079703;28;20895;-73
2021/10/20 09:46:39;;;;;;;4.70;0.63;;;18.10;99.90;;;;;;5078257;28;20059;-72
2021/10/20 09:49:24;;;;;;;5.78;1.08;;;17.90;99.90;;;;;;5082677;28;20103;-72
2021/10/20 09:51:58;;;;;;;2.25;0.45;;;17.90;99.90;;;;;;5081647;28;20047;-73
2021/10/20 09:54:34;;;;;;;2.60;0.40;;;17.90;99.90;;;;;;5078132;28;20104;-72
2021/10/20 09:57:03;;;;;;;2.50;0.43;;;17.80;99.90;;;;;;5086934;28;20064;-72
2021/10/20 09:59:31;;;;;;;5.78;0.70;;;17.80;99.90;;;;;;5078738;28;20021;-73
2021/10/20 10:01:59;;;;;;;2.45;0.98;;;17.70;99.90;;;;;;5082711;28;20058;-72
2021/10/20 10:04:29;;;;;;;4.80;0.80;;;17.70;99.90;;;;;;5076695;28;20122;-72
2021/10/20 10:06:57;;;;;;;3.30;1.15;;;17.60;99.90;;;;;;5084085;28;20474;-70
2021/10/20 10:09:24;;;;;;;1.75;0.40;;;17.60;99.90;;;;;;5088737;28;20032;-72
2021/10/20 10:12:02;;;;;;;7.57;0.55;;;17.50;99.90;;;;;;5084774;28;20039;-72
2021/10/20 10:14:49;;;;;;;3.05;0.77;;;17.50;99.90;;;;;;5067496;28;20139;-71
2021/10/20 10:17:19;;;;;;;2.97;0.50;;;17.40;99.90;;;;;;5087901;28;20031;-72
2021/10/20 10:19:47;;;;;;;2.65;0.70;;;17.30;99.90;;;;;;5079380;28;20418;-72
2021/10/20 10:22:29;;;;;;;4.18;0.70;;;17.30;99.90;;;;;;5089273;28;20027;-73
2021/10/20 10:25:08;;;;;;;2.10;0.77;;;17.20;99.90;;;;;;5091923;28;20027;-71
2021/10/20 10:27:36;;;;;;;4.38;1.45;;;17.20;99.90;;;;;;5083256;28;20024;-72
2021/10/20 10:30:16;;;;;;;5.88;1.58;;;17.20;99.90;;;;;;5088994;28;20052;-72
2021/10/20 10:32:46;;;;;;;5.68;2.00;;;17.10;99.90;;;;;;5083018;28;20035;-72
2021/10/20 10:35:14;;;;;;;4.97;0.88;;;17.10;99.90;;;;;;5083620;28;20134;-71
2021/10/20 10:37:41;;;;;;;3.90;1.08;;;17.00;99.90;;;;;;5087497;28;20107;-72
2021/10/20 10:40:24;;;;;;;4.13;0.93;;;17.00;99.90;;;;;;5077325;28;20033;-71
2021/10/20 10:42:52;;;;;;;1.27;0.35;;;16.90;99.90;;;;;;5084829;28;20028;-73
2021/10/20 10:45:23;;;;;;;2.58;0.98;;;16.90;99.90;;;;;;5084079;28;20025;-73
2021/10/20 10:48:04;;;;;;;3.03;0.90;;;16.90;99.90;;;;;;5077354;28;20425;-72
2021/10/20 10:50:55;;;;;;;1.85;0.98;;;16.80;99.90;;;;;;5078499;28;20349;-71
2021/10/20 10:53:33;;;;;;;3.45;1.20;;;16.80;99.90;;;;;;5079157;28;21432;-72
2021/10/20 10:56:12;;;;;;;3.85;0.47;;;16.80;99.90;;;;;;5069166;28;20024;-72
2021/10/20 10:59:06;;;;;;;2.50;1.00;;;16.70;99.90;;;;;;5076483;28;20024;-73
2021/10/20 11:01:46;;;;;;;4.45;0.40;;;16.70;99.90;;;;;;5074026;28;20036;-71
2021/10/20 11:04:22;;;;;;;2.65;0.73;;;16.70;99.90;;;;;;5077736;28;20028;-71
2021/10/20 11:06:52;;;;;;;4.53;0.73;;;16.60;99.90;;;;;;5079840;28;20024;-71
2021/10/20 11:09:22;;;;;;;1.50;0.50;;;16.60;99.90;;;;;;5077080;28;20024;-71
2021/10/20 11:11:53;;;;;;;3.63;0.43;;;16.60;99.90;;;;;;5079829;28;20040;-71
2021/10/20 11:14:29;;;;;;;4.28;0.68;;;16.50;99.90;;;;;;5079652;28;20056;-71
2021/10/20 11:17:10;;;;;;;6.32;0.85;;;16.50;99.90;;;;;;5074537;28;20048;-70
2021/10/20 11:19:38;;;;;;;6.70;0.90;;;16.40;99.90;;;;;;5081795;28;20037;-71
2021/10/20 11:22:06;;;;;;;1.67;0.40;;;16.40;99.90;;;;;;5067414;28;20063;-72
2021/10/20 11:24:35;;;;;;;3.88;0.95;;;16.40;99.90;;;;;;5082077;28;20020;-71
2021/10/20 11:27:05;;;;;;;6.78;1.40;;;16.40;99.90;;;;;;5087525;28;20039;-72
2021/10/20 11:29:49;;;;;;;3.78;0.77;;;16.50;99.90;;;;;;5086240;28;20105;-71
2021/10/20 11:32:18;;;;;;;2.15;0.60;;;16.50;99.90;;;;;;5078766;28;20068;-71
2021/10/20 11:34:47;;;;;;;3.53;0.50;;;16.50;99.90;;;;;;5077016;28;20078;-72
2021/10/20 11:37:22;;;;;;;2.35;0.70;;;16.50;99.90;;;;;;5076862;28;20044;-70
2021/10/20 11:40:15;;;;;;;2.77;0.63;;;16.50;99.90;;;;;;5089526;28;20028;-71
2021/10/20 11:42:42;;;;;;;3.25;0.73;;;16.40;99.90;;;;;;5072674;28;20048;-72
2021/10/20 11:45:10;;;;;;;4.00;0.88;;;16.40;99.90;;;;;;5073289;28;20103;-73
2021/10/20 11:47:42;;;;;;;3.20;0.60;;;16.40;99.90;;;;;;5077530;28;20123;-72
2021/10/20 11:50:16;;;;;;;5.40;1.88;;;16.40;99.90;;;;;;5080208;28;20085;-72
2021/10/20 11:52:44;;;;;;;1.42;0.40;;;16.40;99.90;;;;;;5088591;28;20036;-71
2021/10/20 11:55:13;;;;;;;2.05;0.73;;;16.40;99.90;;;;;;5083324;28;20024;-72
2021/10/20 11:57:44;;;;;;;4.57;0.80;;;16.30;99.90;;;;;;5073955;28;20038;-71
2021/10/20 12:00:12;;;;;;;5.53;0.70;;;16.30;99.90;;;;;;5074657;28;20024;-71
2021/10/20 12:02:39;;;;;;;2.15;0.98;;;16.20;99.90;;;;;;5080549;28;20028;-71
2021/10/20 12:05:08;;;;;;;5.13;0.90;;;16.10;99.90;;;;;;5086043;28;20028;-70
2021/10/20 12:07:35;;;;;;;6.10;1.75;;;16.00;99.90;;;;;;5079608;28;20023;-71
2021/10/20 12:10:05;;;;;;;6.82;0.95;;;15.90;99.90;;;;;;5085980;28;20106;-72
2021/10/20 12:12:35;;;;;;;5.22;1.58;;;15.80;99.90;;;;;;5083228;28;20103;-72
2021/10/20 12:15:03;;;;;;;6.18;1.63;;;15.80;99.90;;;;;;5076646;28;20036;-73
2021/10/20 12:17:32;;;;;;;7.20;1.25;;;15.70;99.90;;;;;;5073482;28;20020;-72
2021/10/20 12:20:01;;;;;;;7.70;1.70;;;15.70;99.90;;;;;;5066186;28;20039;-72
2021/10/20 12:22:29;;;;;;;4.72;1.90;;;15.70;99.90;;;;;;5074768;28;20125;-71
2021/10/20 12:25:00;;;;;;;8.52;2.95;;;15.60;99.90;;;;;;5080542;28;20028;-71
2021/10/20 12:27:29;;;;;;;11.65;4.07;;;15.60;99.90;;;;;;5078588;28;20031;-70
2021/10/20 12:30:03;;;;;;;12.25;2.78;;;15.60;99.90;;;;;;5089573;28;20063;-71
2021/10/20 12:32:34;;;;;;;26.05;4.68;;;15.50;99.90;;;;;;5078556;28;20047;-71
2021/10/20 12:35:04;;;;;;;21.33;4.53;;;15.40;99.90;;;;;;5061948;28;20027;-72
2021/10/20 12:37:37;;;;;;;15.23;4.88;;;15.40;99.90;;;;;;5076927;28;20533;-73
2021/10/20 12:40:18;;;;;;;23.85;5.65;;;15.40;99.90;;;;;;5091068;28;20423;-72
2021/10/20 12:42:51;;;;;;;29.45;4.80;;;15.30;99.90;;;;;;5089391;28;20035;-72
2021/10/20 12:45:20;;;;;;;27.42;5.13;;;15.30;99.90;;;;;;5076649;28;20426;-71
2021/10/20 12:47:52;;;;;;;33.00;7.07;;;15.30;99.90;;;;;;5072317;28;20507;-71
2021/10/20 12:50:22;;;;;;;23.05;5.10;;;15.20;99.90;;;;;;5090007;28;20040;-72
2021/10/20 12:52:49;;;;;;;29.83;7.38;;;15.20;99.90;;;;;;5078638;28;20050;-71
2021/10/20 12:55:19;;;;;;;23.67;4.80;;;15.10;99.90;;;;;;5075559;28;20025;-72